Pagrindinis puslapis
METAR-TAF:

METAR-TAF

Oro uostai :

Gibraltaras, Gibraltaras

platuma: 36-09N, ilguma: 005-21W, Aukštis: 5 m

Dabartinis oras

Ataskaita buvo paskelbta 28 minutes, ne 04:50 UTC
Vėjas 21 kt iš Rytų
Temperatūra 16°C
Drėgmė 77%
Slėgis 1016 hPa
Matomumas 10 km arba daugiau
Mažai debesys ne aukštis 1800 ft
Išsisklaidę debesys ne aukštis 3400 ft
Apsiniaukę ne aukštis 4900 ft

METAR: LXGB 060450Z 09021KT 9999 FEW018 SCT034 OVC049 16/12 Q1016 RMK BLU

Laikas: 06:18 (05:18 UTC)

Prognozė

Ataskaita buvo paskelbta 12 valandos ir 45 minutes, ne 16:33 UTC
Prognozė galioja nuo 05 metu 18 UTC su 05 metu 23 UTC
Vėjas 15 kt iš Rytų/Šiaurės Rytų
Matomumas 10 km arba daugiau
Mažai debesys ne aukštis 2200 ft
Su prošvaistėmis ne aukštis 5000 ft
Tikimybė 30% :
Laikinai
nuo 05 metu 18 UTC su 05 metu 23 UTC
Matomumas: 7000 m
Išsisklaidę debesys ne aukštis 2200 ft
lietus

TAF: LXGB 051633Z 0518/0523 07015KT 9999 FEW022 BKN050 PROB30 TEMPO 0518/0523 7000 SHRA SCT022

Orai ataskaitas ir orų prognozės (METAR, TAF).

turimą stotys yra geltonos ir raudonos taškus žemėlapyje.

Perkelti pele per norėdami pamatyti stoties vardą.

Tada spustelėkite, norėdami matyti oro stebėjimo ir prognozės.

Norėdami pakeisti žemėlapį: spustelėkite ant žalios mygtukų su juodo kryžiaus žemyn,; žalią mygtuką su brūkšneliu, jei norite nutolinti; arba žalių rodyklių gretimoms žemėlapius.


METAR-TAF: